Time;durP1;ratioP1;P1;durP2;ratioP2;P2;SDS_P1;SDS_P2;PMS_P1;PMS_P2;Temp;Humidity;BMP_temperature;BMP_pressure;BME280_temperature;BME280_humidity;BME280_pressure;Samples;Min_cycle;Max_cycle;Signal;HPM_P1;HPM_P2
2022/04/26 03:37:09;;;;;;;40.37;23.47;;;8.60;99.90;;;;;;5121373;27;20449;-76
2022/04/26 03:39:36;;;;;;;36.87;22.27;;;8.60;99.90;;;;;;5127186;27;20493;-76
2022/04/26 03:42:03;;;;;;;38.57;23.43;;;8.60;99.90;;;;;;5123033;27;20521;-76
2022/04/26 03:44:30;;;;;;;46.17;25.40;;;8.60;99.90;;;;;;5127391;27;20446;-76
2022/04/26 03:46:57;;;;;;;43.43;24.80;;;8.60;99.90;;;;;;5123953;27;20517;-76
2022/04/26 03:49:25;;;;;;;46.30;25.50;;;8.60;99.90;;;;;;5121439;27;20872;-76
2022/04/26 03:51:52;;;;;;;45.33;25.77;;;8.60;99.90;;;;;;5122471;27;20452;-77
2022/04/26 03:54:19;;;;;;;45.37;26.10;;;8.60;99.90;;;;;;5123535;27;20441;-76
2022/04/26 03:56:46;;;;;;;48.40;25.00;;;8.60;99.90;;;;;;5121123;27;20458;-76
2022/04/26 03:59:12;;;;;;;45.87;26.53;;;8.50;99.90;;;;;;5124498;27;20506;-76
2022/04/26 04:01:39;;;;;;;42.33;25.70;;;8.50;99.90;;;;;;5128025;27;20456;-76
2022/04/26 04:04:06;;;;;;;47.30;27.00;;;8.50;99.90;;;;;;5117322;27;20513;-77
2022/04/26 04:06:34;;;;;;;43.20;24.90;;;8.50;99.90;;;;;;5116791;27;20441;-78
2022/04/26 04:09:00;;;;;;;42.87;25.70;;;8.50;99.90;;;;;;5129017;27;20446;-76
2022/04/26 04:11:27;;;;;;;42.97;26.10;;;8.50;99.90;;;;;;5119342;27;20473;-76
2022/04/26 04:13:54;;;;;;;50.17;26.83;;;8.50;99.90;;;;;;5115686;27;20887;-77
2022/04/26 04:16:20;;;;;;;48.33;26.10;;;8.50;99.90;;;;;;5119196;27;20456;-76
2022/04/26 04:21:31;;;;;;;46.90;27.40;;;8.40;99.90;;;;;;5114482;27;20456;-77
2022/04/26 04:23:59;;;;;;;42.83;25.57;;;8.40;99.90;;;;;;5121516;27;20489;-77
2022/04/26 04:26:26;;;;;;;46.37;26.57;;;8.40;99.90;;;;;;5125740;27;20502;-77
2022/04/26 04:28:53;;;;;;;47.43;26.60;;;8.40;99.90;;;;;;5120953;27;20491;-77
2022/04/26 04:31:19;;;;;;;51.70;28.60;;;8.40;99.90;;;;;;5122221;27;20602;-76
2022/04/26 04:33:46;;;;;;;47.43;27.90;;;8.40;99.90;;;;;;5115567;27;20454;-77
2022/04/26 04:36:13;;;;;;;50.30;28.90;;;8.50;99.90;;;;;;5118897;27;20446;-77
2022/04/26 04:38:40;;;;;;;44.57;26.70;;;8.50;99.90;;;;;;5120326;27;20529;-76
2022/04/26 04:41:08;;;;;;;50.07;28.37;;;8.50;99.90;;;;;;5119934;27;20529;-77
2022/04/26 04:43:34;;;;;;;52.07;29.10;;;8.50;99.90;;;;;;5117506;27;20458;-78
2022/04/26 04:46:01;;;;;;;45.03;27.33;;;8.50;99.90;;;;;;5116211;27;20453;-78
2022/04/26 04:48:28;;;;;;;53.60;28.03;;;8.50;99.90;;;;;;5114174;27;20519;-77
2022/04/26 04:50:55;;;;;;;47.90;26.87;;;8.50;99.90;;;;;;5127174;27;20827;-78
2022/04/26 04:53:22;;;;;;;49.13;28.10;;;8.50;99.90;;;;;;5122292;27;20506;-78
2022/04/26 04:55:48;;;;;;;47.97;28.30;;;8.50;99.90;;;;;;5122281;27;20925;-76
2022/04/26 04:58:16;;;;;;;48.90;28.07;;;8.50;99.90;;;;;;5121056;27;20484;-78
2022/04/26 05:00:43;;;;;;;47.40;26.77;;;8.50;99.90;;;;;;5124485;27;20536;-77
2022/04/26 05:03:10;;;;;;;43.00;26.30;;;8.60;99.90;;;;;;5125787;27;20446;-78
2022/04/26 05:05:37;;;;;;;49.07;27.57;;;8.60;99.90;;;;;;5123871;27;20521;-77
2022/04/26 05:08:04;;;;;;;45.13;26.60;;;8.60;99.90;;;;;;5119551;27;20501;-76
2022/04/26 05:10:33;;;;;;;45.40;27.70;;;8.60;99.90;;;;;;5118271;27;20975;-76
2022/04/26 05:13:00;;;;;;;49.67;28.60;;;8.60;99.90;;;;;;5124611;27;20539;-76
2022/04/26 05:15:28;;;;;;;51.90;28.00;;;8.60;99.90;;;;;;5115604;27;21015;-76
2022/04/26 05:17:55;;;;;;;49.00;28.17;;;8.60;99.90;;;;;;5121467;27;20507;-77
2022/04/26 05:20:22;;;;;;;49.00;26.63;;;8.60;99.90;;;;;;5112774;27;20493;-77
2022/04/26 05:25:33;;;;;;;48.03;26.93;;;8.70;99.90;;;;;;5131004;27;20452;-77
2022/04/26 05:28:00;;;;;;;46.83;26.70;;;8.70;99.90;;;;;;5131113;27;20819;-77
2022/04/26 05:30:28;;;;;;;50.40;28.13;;;8.70;99.90;;;;;;5129478;27;20465;-77
2022/04/26 05:32:55;;;;;;;50.13;26.23;;;8.70;99.90;;;;;;5130906;27;20445;-77
2022/04/26 05:35:22;;;;;;;45.33;25.33;;;8.80;99.90;;;;;;5115749;27;20723;-78
2022/04/26 05:37:49;;;;;;;40.07;24.77;;;8.80;99.90;;;;;;5125027;27;20461;-78
2022/04/26 05:40:16;;;;;;;52.03;28.07;;;8.80;99.90;;;;;;5110749;28;20489;-77
2022/04/26 05:42:43;;;;;;;50.10;26.93;;;8.80;99.90;;;;;;5118825;27;20513;-78
2022/04/26 05:45:10;;;;;;;43.60;26.33;;;8.80;99.90;;;;;;5130950;27;20502;-77
2022/04/26 05:47:42;;;;;;;43.57;25.03;;;8.80;99.90;;;;;;5130605;27;20441;-77
2022/04/26 05:50:10;;;;;;;48.20;27.50;;;8.80;99.90;;;;;;5132441;27;20460;-78
2022/04/26 05:52:36;;;;;;;42.03;25.53;;;8.80;99.90;;;;;;5129264;27;20455;-79
2022/04/26 05:55:05;;;;;;;47.83;27.23;;;8.80;99.90;;;;;;5130429;27;20441;-78
2022/04/26 05:57:32;;;;;;;45.50;26.23;;;8.80;99.90;;;;;;5132227;27;20457;-78
2022/04/26 05:59:59;;;;;;;49.23;25.90;;;8.80;99.90;;;;;;5132368;27;20480;-78
2022/04/26 06:02:25;;;;;;;51.03;27.00;;;8.80;99.90;;;;;;5134343;27;20453;-79
2022/04/26 06:04:53;;;;;;;43.03;25.57;;;8.80;99.90;;;;;;5134022;27;20501;-79
2022/04/26 06:07:20;;;;;;;50.47;26.63;;;8.80;99.90;;;;;;5134676;27;20854;-79
2022/04/26 06:09:48;;;;;;;56.87;28.47;;;8.80;99.90;;;;;;5135537;27;20461;-79
2022/04/26 06:12:15;;;;;;;43.03;25.00;;;8.80;99.90;;;;;;5134476;27;20466;-80
2022/04/26 06:14:41;;;;;;;51.03;28.03;;;8.80;99.90;;;;;;5135604;27;20453;-80
2022/04/26 06:17:08;;;;;;;47.70;27.63;;;8.80;99.90;;;;;;5135924;27;20501;-80
2022/04/26 06:19:35;;;;;;;45.87;27.33;;;8.80;99.90;;;;;;5136333;27;20485;-80
2022/04/26 06:22:03;;;;;;;47.80;26.77;;;8.80;99.90;;;;;;5137978;27;20474;-79
2022/04/26 06:24:30;;;;;;;46.63;26.50;;;8.90;99.90;;;;;;5140181;27;20509;-80
2022/04/26 06:26:56;;;;;;;46.60;26.67;;;8.90;99.90;;;;;;5139220;27;20449;-80
2022/04/26 06:29:23;;;;;;;47.53;25.73;;;8.90;99.90;;;;;;5138844;27;20441;-80
2022/04/26 06:31:49;;;;;;;47.77;25.80;;;8.90;99.90;;;;;;5139282;27;20475;-80
2022/04/26 06:34:17;;;;;;;46.67;27.00;;;8.90;99.90;;;;;;5138426;27;20498;-79
2022/04/26 06:36:43;;;;;;;47.33;25.40;;;8.90;99.90;;;;;;5138465;27;20452;-80
2022/04/26 06:39:11;;;;;;;43.73;25.13;;;8.90;99.90;;;;;;5139336;27;21048;-80
2022/04/26 06:41:38;;;;;;;47.73;27.70;;;8.90;99.90;;;;;;5139059;27;20440;-80
2022/04/26 06:44:05;;;;;;;47.70;26.47;;;8.90;99.90;;;;;;5138421;27;20457;-80
2022/04/26 06:46:34;;;;;;;50.60;27.33;;;8.80;99.90;;;;;;5140529;27;20509;-80
2022/04/26 06:49:01;;;;;;;50.27;27.50;;;8.80;99.90;;;;;;5139059;27;20444;-80
2022/04/26 06:51:30;;;;;;;46.20;25.37;;;8.80;99.90;;;;;;5138368;27;20635;-82
2022/04/26 06:53:57;;;;;;;52.93;26.30;;;8.70;99.90;;;;;;5137901;27;20445;-80
2022/04/26 06:56:25;;;;;;;50.37;26.83;;;8.70;99.90;;;;;;5140229;27;20474;-81
2022/04/26 06:58:51;;;;;;;51.63;27.00;;;8.70;99.90;;;;;;5139562;27;20449;-81
2022/04/26 07:01:18;;;;;;;56.50;25.80;;;8.60;99.90;;;;;;5139319;27;20457;-81
2022/04/26 07:03:45;;;;;;;53.40;27.40;;;8.60;99.90;;;;;;5139278;27;21037;-81
2022/04/26 07:06:11;;;;;;;53.17;27.17;;;8.60;99.90;;;;;;5139632;27;20494;-81
2022/04/26 07:08:38;;;;;;;54.40;27.63;;;8.60;99.90;;;;;;5139692;27;20478;-81
2022/04/26 07:11:04;;;;;;;50.50;26.87;;;8.60;99.90;;;;;;5139535;27;20526;-81
2022/04/26 07:13:32;;;;;;;63.47;32.27;;;8.60;99.90;;;;;;5138817;27;20445;-81
2022/04/26 07:15:59;;;;;;;61.93;31.03;;;8.60;99.90;;;;;;5139221;27;20449;-81
2022/04/26 07:18:26;;;;;;;66.93;28.60;;;8.60;99.90;;;;;;5138943;27;20486;-81
2022/04/26 07:20:53;;;;;;;52.90;25.77;;;8.60;99.90;;;;;;5139526;27;20563;-81
2022/04/26 07:23:20;;;;;;;63.60;28.73;;;8.60;99.90;;;;;;5138574;27;20945;-81
2022/04/26 07:25:46;;;;;;;57.57;27.27;;;8.50;99.90;;;;;;5139244;27;20456;-81
2022/04/26 07:28:13;;;;;;;51.80;26.00;;;8.50;99.90;;;;;;5139474;27;20953;-81
2022/04/26 07:30:41;;;;;;;44.70;24.30;;;8.40;99.90;;;;;;5138662;27;20465;-81
2022/04/26 07:35:54;;;;;;;50.87;26.80;;;8.50;99.90;;;;;;5139383;27;21008;-81
2022/04/26 07:38:21;;;;;;;54.17;26.07;;;8.50;99.90;;;;;;5139246;27;20457;-82
2022/04/26 07:40:48;;;;;;;50.23;24.10;;;8.50;99.90;;;;;;5138451;27;20480;-81
2022/04/26 07:43:15;;;;;;;44.80;24.47;;;8.50;99.90;;;;;;5138707;27;20445;-81
2022/04/26 07:45:45;;;;;;;44.03;23.67;;;8.60;99.90;;;;;;5140126;27;20445;-81
2022/04/26 07:48:14;;;;;;;44.00;24.17;;;8.60;99.90;;;;;;5139408;27;20437;-81
2022/04/26 07:50:41;;;;;;;45.67;22.73;;;8.60;99.90;;;;;;5139193;27;20472;-81
2022/04/26 07:53:07;;;;;;;42.83;22.33;;;8.70;99.90;;;;;;5141163;27;20448;-78
2022/04/26 07:55:37;;;;;;;41.63;23.27;;;8.70;99.90;;;;;;5141081;27;20452;-78
2022/04/26 07:58:03;;;;;;;44.97;24.13;;;8.70;99.90;;;;;;5147875;27;20505;-78
2022/04/26 08:00:30;;;;;;;47.03;23.10;;;8.70;99.90;;;;;;5142888;27;20492;-78
2022/04/26 08:02:58;;;;;;;47.10;22.80;;;8.70;99.90;;;;;;5143077;27;20453;-78
2022/04/26 08:05:25;;;;;;;49.93;24.77;;;8.70;99.90;;;;;;5139926;27;20489;-78
2022/04/26 08:07:51;;;;;;;45.33;24.10;;;8.70;99.90;;;;;;5141495;27;20467;-80
2022/04/26 08:10:18;;;;;;;46.93;24.77;;;8.70;99.90;;;;;;5145567;27;20811;-80
2022/04/26 08:12:45;;;;;;;48.77;23.10;;;8.70;99.90;;;;;;5147561;27;20501;-80
2022/04/26 08:15:13;;;;;;;42.43;23.83;;;8.70;99.90;;;;;;5148524;27;20459;-80
2022/04/26 08:17:40;;;;;;;45.57;23.47;;;8.70;99.90;;;;;;5147663;27;20449;-77
2022/04/26 08:20:10;;;;;;;41.17;22.03;;;8.80;99.90;;;;;;5138306;27;20493;-78
2022/04/26 08:22:37;;;;;;;45.40;22.30;;;8.80;99.90;;;;;;5141854;27;20453;-78
2022/04/26 08:27:49;;;;;;;39.57;23.60;;;8.80;99.90;;;;;;5136370;27;20440;-77
2022/04/26 08:30:16;;;;;;;44.73;24.50;;;8.80;99.90;;;;;;5136112;27;20548;-77
2022/04/26 08:32:44;;;;;;;46.23;22.53;;;8.80;99.90;;;;;;5139006;27;20498;-77
2022/04/26 08:35:14;;;;;;;40.00;21.27;;;8.80;99.90;;;;;;5136113;27;20463;-78
2022/04/26 08:37:42;;;;;;;35.67;19.53;;;8.80;99.90;;;;;;5139580;27;21010;-77
2022/04/26 08:40:10;;;;;;;38.17;20.93;;;8.80;99.90;;;;;;5136871;27;20488;-78
2022/04/26 08:42:37;;;;;;;42.13;21.30;;;8.90;99.90;;;;;;5138815;27;20440;-78
2022/04/26 08:45:06;;;;;;;36.90;19.50;;;9.00;99.90;;;;;;5137449;27;20455;-78
2022/04/26 08:53:04;;;;;;;39.83;20.70;;;9.00;99.90;;;;;;5133278;27;21064;-77
2022/04/26 08:55:31;;;;;;;41.13;19.90;;;9.00;99.90;;;;;;5134888;27;20445;-77
2022/04/26 08:57:58;;;;;;;38.27;20.27;;;9.00;99.90;;;;;;5136042;27;20453;-77
2022/04/26 09:00:25;;;;;;;34.83;19.47;;;9.10;99.90;;;;;;5135232;27;20492;-78
2022/04/26 09:03:03;;;;;;;36.03;18.37;;;9.10;99.90;;;;;;5145652;27;20502;-80
2022/04/26 09:05:31;;;;;;;34.27;20.10;;;9.10;99.90;;;;;;5139261;27;20523;-78
2022/04/26 09:07:59;;;;;;;36.37;19.50;;;9.10;99.90;;;;;;5136858;27;20493;-78
2022/04/26 09:10:29;;;;;;;37.93;20.10;;;9.10;99.90;;;;;;5136960;27;20555;-77
2022/04/26 09:13:04;;;;;;;32.43;19.20;;;9.20;99.90;;;;;;5135474;27;20811;-77
2022/04/26 09:15:42;;;;;;;31.90;17.03;;;9.20;99.90;;;;;;5135037;27;20444;-77
2022/04/26 09:18:20;;;;;;;33.57;19.00;;;9.20;99.90;;;;;;5135560;27;20859;-77
2022/04/26 09:20:49;;;;;;;30.23;17.50;;;9.20;99.90;;;;;;5135926;27;20988;-77
2022/04/26 09:23:20;;;;;;;31.13;17.83;;;9.20;99.90;;;;;;5136708;27;20477;-77
2022/04/26 09:25:49;;;;;;;31.83;17.37;;;9.20;99.90;;;;;;5136335;27;20499;-78
2022/04/26 09:28:23;;;;;;;31.60;17.73;;;9.20;99.90;;;;;;5137177;27;21013;-77
2022/04/26 09:30:51;;;;;;;30.60;17.17;;;9.20;99.90;;;;;;5139282;27;20513;-77
2022/04/26 09:33:32;;;;;;;35.83;19.23;;;9.20;99.90;;;;;;5134067;27;20884;-77
2022/04/26 09:36:05;;;;;;;32.23;18.00;;;9.20;99.90;;;;;;5137960;27;20857;-77
2022/04/26 09:38:33;;;;;;;31.93;17.97;;;9.20;99.90;;;;;;5134648;27;20459;-77
2022/04/26 09:41:01;;;;;;;34.20;18.60;;;9.20;99.90;;;;;;5137592;27;20835;-77
2022/04/26 09:43:28;;;;;;;31.53;16.80;;;9.10;99.90;;;;;;5137237;27;20995;-77
2022/04/26 09:45:56;;;;;;;28.13;15.07;;;9.10;99.90;;;;;;5138116;27;20449;-78
2022/04/26 09:48:27;;;;;;;20.30;12.70;;;9.00;99.90;;;;;;5133541;27;20528;-77
2022/04/26 09:50:54;;;;;;;19.07;12.37;;;9.00;99.90;;;;;;5133479;27;20492;-77
2022/04/26 09:53:22;;;;;;;19.40;12.40;;;8.90;99.90;;;;;;5130126;27;20501;-77
2022/04/26 09:55:49;;;;;;;24.87;14.73;;;8.90;99.90;;;;;;5136081;27;20445;-77
2022/04/26 09:58:19;;;;;;;24.40;14.07;;;9.00;99.90;;;;;;5133033;27;21041;-77
2022/04/26 10:00:49;;;;;;;22.97;13.10;;;9.00;99.90;;;;;;5133211;27;20545;-77
2022/04/26 10:03:20;;;;;;;20.33;10.67;;;9.00;99.90;;;;;;5136794;27;20449;-77
2022/04/26 10:05:49;;;;;;;16.93;10.43;;;9.00;99.90;;;;;;5139531;27;20443;-77
2022/04/26 10:08:19;;;;;;;20.47;10.87;;;8.80;99.90;;;;;;5140946;27;20535;-77
2022/04/26 10:10:47;;;;;;;18.90;10.73;;;8.80;99.90;;;;;;5138317;27;20976;-77
2022/04/26 10:16:03;;;;;;;16.90;8.10;;;8.80;99.90;;;;;;5141185;27;20494;-78
2022/04/26 10:18:31;;;;;;;16.23;9.30;;;8.70;99.90;;;;;;5138472;27;20447;-77
2022/04/26 10:20:58;;;;;;;15.43;8.00;;;8.60;99.90;;;;;;5138242;27;20491;-78
2022/04/26 10:23:24;;;;;;;11.90;7.90;;;8.60;99.90;;;;;;5136789;27;20449;-78
2022/04/26 10:26:23;;;;;;;13.70;7.70;;;8.50;99.90;;;;;;5137651;27;20510;-77
2022/04/26 10:28:51;;;;;;;5.37;4.43;;;8.40;99.90;;;;;;5137944;27;20485;-77
2022/04/26 10:31:18;;;;;;;8.13;6.43;;;8.40;99.90;;;;;;5137899;27;21000;-78
2022/04/26 10:33:46;;;;;;;8.53;6.30;;;8.30;99.90;;;;;;5137454;27;20461;-78
2022/04/26 10:36:33;;;;;;;6.47;4.50;;;8.30;99.90;;;;;;5138404;27;20445;-77
2022/04/26 10:39:22;;;;;;;25.03;3.57;;;8.30;99.90;;;;;;5137179;27;20437;-77
2022/04/26 10:41:51;;;;;;;3.53;3.23;;;8.30;99.90;;;;;;5139150;27;20488;-77
2022/04/26 10:44:32;;;;;;;7.30;3.53;;;8.30;99.90;;;;;;5137837;27;20505;-77
2022/04/26 10:47:25;;;;;;;4.80;3.27;;;8.20;99.90;;;;;;5137684;27;20463;-78
2022/04/26 10:49:52;;;;;;;3.20;2.90;;;8.30;99.90;;;;;;5137874;27;20556;-77
2022/04/26 10:52:49;;;;;;;3.07;2.70;;;8.30;99.90;;;;;;5135041;27;20986;-77
2022/04/26 10:55:18;;;;;;;2.63;2.43;;;8.20;99.90;;;;;;5129722;27;20460;-78
2022/04/26 10:57:51;;;;;;;3.60;2.60;;;8.20;99.90;;;;;;5137457;27;20869;-77
2022/04/26 11:00:21;;;;;;;4.23;2.53;;;8.20;99.90;;;;;;5138828;27;20586;-77
2022/04/26 11:02:51;;;;;;;7.60;2.63;;;8.30;99.90;;;;;;5137999;28;20789;-77
2022/04/26 11:05:19;;;;;;;4.30;2.97;;;8.30;99.90;;;;;;5137839;27;20517;-77
2022/04/26 11:07:47;;;;;;;3.30;2.80;;;8.40;99.90;;;;;;5141549;27;20505;-77
2022/04/26 11:10:16;;;;;;;3.33;2.80;;;8.40;99.90;;;;;;5142748;27;20464;-78
2022/04/26 11:12:43;;;;;;;3.13;2.93;;;8.40;99.90;;;;;;5142411;27;20444;-77
2022/04/26 11:15:13;;;;;;;3.70;3.40;;;8.50;99.90;;;;;;5140489;27;20453;-77
2022/04/26 11:17:41;;;;;;;3.70;3.40;;;8.60;99.90;;;;;;5145612;27;20453;-78
2022/04/26 11:20:12;;;;;;;5.43;3.90;;;8.70;99.90;;;;;;5143651;27;20456;-78
2022/04/26 11:22:45;;;;;;;4.20;3.77;;;8.70;99.90;;;;;;5144371;27;20888;-78
2022/04/26 11:28:06;;;;;;;4.50;4.10;;;8.80;99.90;;;;;;5145640;27;20801;-77
2022/04/26 11:30:36;;;;;;;4.47;3.90;;;8.90;99.90;;;;;;5145878;27;20570;-78
2022/04/26 11:33:05;;;;;;;6.53;4.70;;;8.90;99.90;;;;;;5145976;27;20448;-78
2022/04/26 11:35:34;;;;;;;5.67;4.40;;;9.00;99.90;;;;;;5143490;27;20445;-78
2022/04/26 11:38:04;;;;;;;5.97;4.80;;;9.00;99.90;;;;;;5142313;27;20441;-78
2022/04/26 11:40:32;;;;;;;5.67;5.07;;;8.90;99.90;;;;;;5140559;27;20481;-77
2022/04/26 11:43:06;;;;;;;8.83;6.10;;;8.90;99.90;;;;;;5140076;27;20444;-78
2022/04/26 11:45:36;;;;;;;7.57;6.20;;;9.00;99.90;;;;;;5140845;27;20498;-78
2022/04/26 11:48:04;;;;;;;10.97;7.20;;;9.00;99.90;;;;;;5141832;27;20448;-77
2022/04/26 11:50:31;;;;;;;11.57;8.03;;;9.00;99.90;;;;;;5140163;27;20464;-77
2022/04/26 11:53:02;;;;;;;8.13;7.20;;;9.00;99.90;;;;;;5138006;27;20884;-77
2022/04/26 11:55:30;;;;;;;11.57;7.47;;;9.00;99.90;;;;;;5138241;27;20453;-78
2022/04/26 11:58:15;;;;;;;13.53;8.43;;;9.00;99.90;;;;;;5141111;27;20494;-77
2022/04/26 12:00:54;;;;;;;10.77;7.97;;;9.00;99.90;;;;;;5140500;27;20858;-77
2022/04/26 12:03:22;;;;;;;11.07;8.93;;;9.00;99.90;;;;;;5140147;27;20452;-79
2022/04/26 12:05:53;;;;;;;10.43;7.73;;;8.90;99.90;;;;;;5140676;27;20453;-78
2022/04/26 12:08:21;;;;;;;10.83;8.40;;;8.90;99.90;;;;;;5143009;27;20437;-78
2022/04/26 12:10:48;;;;;;;13.13;8.47;;;8.80;99.90;;;;;;5142450;27;20525;-78
2022/04/26 12:13:29;;;;;;;12.07;9.27;;;8.90;99.90;;;;;;5142945;27;20465;-78
2022/04/26 12:15:58;;;;;;;11.27;8.50;;;8.90;99.90;;;;;;5143246;27;20448;-78
2022/04/26 12:18:24;;;;;;;13.50;8.50;;;8.80;99.90;;;;;;5142285;27;20535;-78
2022/04/26 12:21:00;;;;;;;12.60;8.60;;;8.80;99.90;;;;;;5142528;27;20480;-78
2022/04/26 12:23:28;;;;;;;13.83;8.87;;;8.90;99.90;;;;;;5142422;27;20448;-77
2022/04/26 12:25:56;;;;;;;12.93;9.17;;;8.90;99.90;;;;;;5143835;27;20481;-78
2022/04/26 12:28:23;;;;;;;12.00;9.00;;;8.90;99.90;;;;;;5142835;27;20453;-78
2022/04/26 12:30:49;;;;;;;11.60;8.87;;;8.90;99.90;;;;;;5142557;27;20473;-77
2022/04/26 12:33:32;;;;;;;17.50;9.43;;;8.80;99.90;;;;;;5140508;27;20449;-78
2022/04/26 12:36:00;;;;;;;12.30;9.33;;;8.70;99.90;;;;;;5140776;27;20459;-78
2022/04/26 12:38:27;;;;;;;11.93;8.30;;;8.70;99.90;;;;;;5142904;27;20494;-78
2022/04/26 12:41:05;;;;;;;15.20;8.50;;;8.70;99.90;;;;;;5141508;27;20553;-77
2022/04/26 12:43:32;;;;;;;11.13;8.37;;;8.60;99.90;;;;;;5141724;27;20444;-77
2022/04/26 12:46:01;;;;;;;13.30;9.77;;;8.50;99.90;;;;;;5140932;27;20444;-78
2022/04/26 12:51:20;;;;;;;16.93;9.80;;;8.50;99.90;;;;;;5139232;27;20482;-77
2022/04/26 12:53:48;;;;;;;18.53;10.20;;;8.50;99.90;;;;;;5138555;27;20540;-78
2022/04/26 12:56:15;;;;;;;10.90;8.77;;;8.50;99.90;;;;;;5141469;27;20448;-78
2022/04/26 12:58:43;;;;;;;12.27;9.33;;;8.60;99.90;;;;;;5140156;27;20449;-78
2022/04/26 13:01:11;;;;;;;15.17;9.37;;;8.60;99.90;;;;;;5140063;27;20553;-77
2022/04/26 13:03:40;;;;;;;11.47;8.63;;;8.60;99.90;;;;;;5139320;27;20444;-77
2022/04/26 13:06:09;;;;;;;15.23;9.63;;;8.60;99.90;;;;;;5139191;27;20765;-77
2022/04/26 13:08:37;;;;;;;14.33;9.63;;;8.60;99.90;;;;;;5139409;27;20501;-77
2022/04/26 13:11:05;;;;;;;15.70;9.70;;;8.70;99.90;;;;;;5139018;27;20469;-77
2022/04/26 13:13:33;;;;;;;15.27;9.97;;;8.70;99.90;;;;;;5138293;27;20957;-78
2022/04/26 13:16:00;;;;;;;15.20;9.67;;;8.70;99.90;;;;;;5139602;27;20445;-77
2022/04/26 13:18:28;;;;;;;17.30;10.33;;;8.80;99.90;;;;;;5139601;27;20430;-77
2022/04/26 13:20:57;;;;;;;15.93;10.57;;;8.80;99.90;;;;;;5130694;27;20940;-77
2022/04/26 13:23:24;;;;;;;16.23;10.57;;;8.90;99.90;;;;;;5119156;27;20453;-77
2022/04/26 13:25:51;;;;;;;14.27;9.87;;;8.80;99.90;;;;;;5124825;27;20452;-77
2022/04/26 13:28:18;;;;;;;17.07;11.33;;;8.80;99.90;;;;;;5139109;27;20449;-77
2022/04/26 13:30:46;;;;;;;16.40;10.00;;;8.80;99.90;;;;;;5134934;27;21005;-75
2022/04/26 13:33:13;;;;;;;14.77;9.57;;;8.90;99.90;;;;;;5113184;27;21137;-75
2022/04/26 13:35:39;;;;;;;12.87;8.30;;;9.50;99.90;;;;;;5112957;27;20446;-74
2022/04/26 13:38:12;;;;;;;11.50;8.13;;;10.00;99.90;;;;;;5111363;28;20449;-75
2022/04/26 13:40:40;;;;;;;10.70;8.03;;;10.40;99.90;;;;;;5111503;28;20539;-74
2022/04/26 13:43:08;;;;;;;14.77;9.80;;;10.60;99.90;;;;;;5124520;27;20433;-79
2022/04/26 13:45:35;;;;;;;11.00;8.80;;;10.70;99.90;;;;;;5131896;27;20207;-79
2022/04/26 13:48:09;;;;;;;14.97;9.37;;;10.50;99.90;;;;;;5143107;27;20445;-79
2022/04/26 13:50:35;;;;;;;18.10;10.83;;;10.00;99.90;;;;;;5147939;27;21030;-79
2022/04/26 13:53:02;;;;;;;14.37;9.90;;;9.70;99.90;;;;;;5145427;27;20449;-79
2022/04/26 13:55:30;;;;;;;15.37;11.00;;;9.50;99.90;;;;;;5146681;27;20463;-79
2022/04/26 13:57:57;;;;;;;13.97;10.40;;;9.40;99.90;;;;;;5145361;27;20512;-79
2022/04/26 14:00:24;;;;;;;18.83;11.60;;;9.30;99.90;;;;;;5146365;27;20608;-79
2022/04/26 14:02:50;;;;;;;17.20;10.80;;;9.50;99.90;;;;;;5144214;27;20473;-79
2022/04/26 14:05:18;;;;;;;17.30;11.40;;;9.20;99.90;;;;;;5148621;27;20445;-79
2022/04/26 14:07:46;;;;;;;16.00;11.03;;;9.20;99.90;;;;;;5148582;27;20471;-79
2022/04/26 14:10:13;;;;;;;14.90;11.50;;;9.20;99.90;;;;;;5148227;27;20499;-79
2022/04/26 14:12:41;;;;;;;20.93;12.50;;;9.20;99.90;;;;;;5147866;27;20451;-79
2022/04/26 14:23:22;;;;;;;15.33;9.87;;;9.10;99.90;;;;;;5147163;28;20420;-79
2022/04/26 14:25:50;;;;;;;17.00;10.10;;;9.20;99.90;;;;;;5146609;27;20478;-78
2022/04/26 14:28:19;;;;;;;14.47;11.00;;;9.20;99.90;;;;;;5147368;28;20472;-79
2022/04/26 14:30:45;;;;;;;19.13;12.30;;;9.20;99.90;;;;;;5147116;28;20506;-79
2022/04/26 14:33:13;;;;;;;12.80;9.07;;;9.10;99.90;;;;;;5147180;27;20539;-79
2022/04/26 14:35:39;;;;;;;17.30;10.50;;;9.10;99.90;;;;;;5146964;27;20456;-79
2022/04/26 14:38:10;;;;;;;16.80;9.60;;;9.10;99.90;;;;;;5144937;27;20445;-79
2022/04/26 14:40:37;;;;;;;14.53;10.30;;;9.20;99.90;;;;;;5146919;27;20992;-79
2022/04/26 14:43:04;;;;;;;16.37;10.30;;;9.20;99.90;;;;;;5149390;27;20499;-79
2022/04/26 14:45:33;;;;;;;13.87;9.67;;;9.20;99.90;;;;;;5151646;27;20448;-79
2022/04/26 14:48:00;;;;;;;15.10;10.33;;;9.30;99.90;;;;;;5151522;27;20473;-79
2022/04/26 14:50:27;;;;;;;15.40;10.57;;;9.40;99.90;;;;;;5151378;27;20484;-79
2022/04/26 14:52:54;;;;;;;16.43;11.37;;;9.50;99.90;;;;;;5153099;27;20468;-79
2022/04/26 14:55:21;;;;;;;16.73;10.73;;;9.70;99.90;;;;;;5152202;27;20448;-79
2022/04/26 14:57:47;;;;;;;12.83;9.50;;;9.80;99.90;;;;;;5152873;27;20441;-79
2022/04/26 15:00:15;;;;;;;19.87;10.10;;;9.70;99.90;;;;;;5152939;27;20815;-79
2022/04/26 15:02:43;;;;;;;14.67;10.20;;;9.80;99.90;;;;;;5138196;27;20539;-81
2022/04/26 15:05:13;;;;;;;14.00;10.00;;;9.80;99.90;;;;;;5142322;27;20446;-78
2022/04/26 15:10:25;;;;;;;14.63;9.77;;;10.00;99.90;;;;;;5138292;27;20517;-77
2022/04/26 15:18:22;;;;;;;12.13;9.50;;;10.10;99.90;;;;;;5127993;27;20474;-80
2022/04/26 15:20:50;;;;;;;14.17;10.07;;;10.10;99.90;;;;;;5132817;27;20530;-78
2022/04/26 15:23:17;;;;;;;13.23;9.23;;;10.00;99.90;;;;;;5128643;27;20485;-79
2022/04/26 15:25:48;;;;;;;12.83;9.80;;;10.00;99.90;;;;;;5126321;27;20876;-78
2022/04/26 15:28:15;;;;;;;20.63;9.27;;;10.00;99.90;;;;;;5119890;27;21026;-79
2022/04/26 15:30:43;;;;;;;15.50;10.00;;;10.00;99.90;;;;;;5129888;27;20520;-83
2022/04/26 15:33:10;;;;;;;17.00;10.67;;;9.90;99.90;;;;;;5126810;27;20453;-79
2022/04/26 15:35:38;;;;;;;14.23;9.40;;;9.80;99.90;;;;;;5135564;27;20489;-79
2022/04/26 15:38:06;;;;;;;11.10;8.80;;;9.80;99.90;;;;;;5127417;27;20437;-80
2022/04/26 15:40:34;;;;;;;14.00;10.70;;;9.80;99.90;;;;;;5129319;27;21056;-79
2022/04/26 15:43:01;;;;;;;13.40;11.00;;;9.80;99.90;;;;;;5133183;27;20567;-82
2022/04/26 15:45:27;;;;;;;13.80;10.50;;;9.70;99.90;;;;;;5132440;27;20454;-76
2022/04/26 15:47:54;;;;;;;17.10;10.30;;;9.60;99.90;;;;;;5121533;27;20461;-75
2022/04/26 15:50:21;;;;;;;15.23;10.80;;;9.60;99.90;;;;;;5121706;27;20471;-77
2022/04/26 15:52:49;;;;;;;16.77;11.33;;;9.50;99.90;;;;;;5126137;27;20568;-78
2022/04/26 15:55:16;;;;;;;16.00;11.20;;;9.40;99.90;;;;;;5126876;27;20452;-76
2022/04/26 15:57:44;;;;;;;16.20;11.90;;;9.50;99.90;;;;;;5127776;27;20454;-78
2022/04/26 16:00:12;;;;;;;16.30;11.57;;;9.50;99.90;;;;;;5116448;27;20491;-77
2022/04/26 16:02:39;;;;;;;23.30;14.77;;;9.50;99.90;;;;;;5114165;27;20477;-75
2022/04/26 16:05:06;;;;;;;17.07;11.80;;;9.50;99.90;;;;;;5119124;27;20457;-77
2022/04/26 16:07:33;;;;;;;15.97;11.47;;;9.50;99.90;;;;;;5124380;27;20485;-75
2022/04/26 16:20:58;;;;;;;19.93;12.00;;;9.60;99.90;;;;;;5119896;27;20501;-77
2022/04/26 16:23:24;;;;;;;14.90;11.43;;;9.50;99.90;;;;;;5123794;27;20899;-77
2022/04/26 16:25:52;;;;;;;22.50;12.00;;;9.50;99.90;;;;;;5133205;27;20903;-78
2022/04/26 16:28:19;;;;;;;18.07;11.27;;;9.40;99.90;;;;;;5132804;27;20452;-75
2022/04/26 16:30:46;;;;;;;17.73;11.77;;;9.40;99.90;;;;;;5130317;27;20470;-79
2022/04/26 16:33:13;;;;;;;16.63;12.47;;;9.40;99.90;;;;;;5110925;28;20517;-76
2022/04/26 16:35:40;;;;;;;17.77;11.63;;;9.40;99.90;;;;;;5128165;27;20565;-78
2022/04/26 16:38:07;;;;;;;19.63;11.60;;;9.40;99.90;;;;;;5134925;27;20846;-79
2022/04/26 16:40:34;;;;;;;15.93;11.73;;;9.40;99.90;;;;;;5122246;27;20477;-83
2022/04/26 16:43:02;;;;;;;14.50;10.73;;;9.40;99.90;;;;;;5119085;28;20485;-77
2022/04/26 16:45:29;;;;;;;11.83;8.40;;;9.40;99.90;;;;;;5136527;27;21163;-80
2022/04/26 16:47:56;;;;;;;16.93;9.00;;;9.40;99.90;;;;;;5135689;27;20445;-78
2022/04/26 16:50:23;;;;;;;19.83;8.80;;;9.40;99.90;;;;;;5137241;27;20468;-79
2022/04/26 16:52:51;;;;;;;13.30;9.00;;;9.30;99.90;;;;;;5129715;27;20450;-78
2022/04/26 16:55:18;;;;;;;10.50;8.35;;;9.30;99.90;;;;;;5120880;27;20475;-75
2022/04/26 16:57:46;;;;;;;11.20;9.00;;;9.30;99.90;;;;;;5131447;27;20203;-75
2022/04/26 17:00:16;;;;;;;15.63;8.33;;;9.20;99.90;;;;;;5124276;27;20549;-75
2022/04/26 17:02:43;;;;;;;8.20;7.40;;;9.30;99.90;;;;;;5130797;27;20469;-74
2022/04/26 17:05:11;;;;;;;10.57;8.20;;;9.30;99.90;;;;;;5121280;27;20511;-78
2022/04/26 17:07:38;;;;;;;8.83;7.63;;;9.40;99.90;;;;;;5111170;27;20961;-75
2022/04/26 17:10:06;;;;;;;9.20;7.70;;;9.40;99.90;;;;;;5113574;27;20852;-74
2022/04/26 17:12:33;;;;;;;10.20;9.00;;;9.40;99.90;;;;;;5111630;28;20475;-76
2022/04/26 17:15:00;;;;;;;14.40;12.70;;;9.40;99.90;;;;;;5121445;27;20445;-77